sensor_id;sensor_type;location;lat;lon;timestamp;pressure;altitude;pressure_sealevel;temperature;humidity
21203;BME280;10759;51.982;9.232;2023-07-16T00:00:23;99665.47;;;21.78;100.00
21203;BME280;10759;51.982;9.232;2023-07-16T00:02:53;99679.63;;;21.82;100.00
21203;BME280;10759;51.982;9.232;2023-07-16T00:05:23;99682.91;;;21.95;100.00
21203;BME280;10759;51.982;9.232;2023-07-16T00:07:51;99677.91;;;21.91;100.00
21203;BME280;10759;51.982;9.232;2023-07-16T00:10:19;99685.50;;;21.87;100.00
21203;BME280;10759;51.982;9.232;2023-07-16T00:12:47;99660.72;;;21.71;100.00
21203;BME280;10759;51.982;9.232;2023-07-16T00:15:15;99644.53;;;21.69;100.00
21203;BME280;10759;51.982;9.232;2023-07-16T00:17:43;99632.06;;;21.57;100.00
21203;BME280;10759;51.982;9.232;2023-07-16T00:20:11;99647.09;;;21.71;100.00
21203;BME280;10759;51.982;9.232;2023-07-16T00:22:41;99667.13;;;21.89;100.00
21203;BME280;10759;51.982;9.232;2023-07-16T00:25:09;99668.31;;;21.77;100.00
21203;BME280;10759;51.982;9.232;2023-07-16T00:27:37;99709.47;;;21.93;100.00
21203;BME280;10759;51.982;9.232;2023-07-16T00:30:06;99697.28;;;21.78;100.00
21203;BME280;10759;51.982;9.232;2023-07-16T00:32:34;99693.16;;;21.74;100.00
21203;BME280;10759;51.982;9.232;2023-07-16T00:35:03;99687.09;;;21.80;97.01
21203;BME280;10759;51.982;9.232;2023-07-16T00:37:31;99677.78;;;21.73;95.05
21203;BME280;10759;51.982;9.232;2023-07-16T00:40:01;99680.94;;;21.78;90.87
21203;BME280;10759;51.982;9.232;2023-07-16T00:42:29;99711.78;;;21.88;88.54
21203;BME280;10759;51.982;9.232;2023-07-16T00:44:57;99733.16;;;21.93;86.80
21203;BME280;10759;51.982;9.232;2023-07-16T00:47:25;99721.06;;;21.95;83.15
21203;BME280;10759;51.982;9.232;2023-07-16T00:49:53;99744.06;;;21.83;80.13
21203;BME280;10759;51.982;9.232;2023-07-16T00:52:22;99757.28;;;21.68;81.43
21203;BME280;10759;51.982;9.232;2023-07-16T00:54:50;99733.75;;;21.77;80.63
21203;BME280;10759;51.982;9.232;2023-07-16T00:57:19;99735.75;;;21.84;77.38
21203;BME280;10759;51.982;9.232;2023-07-16T00:59:47;99698.75;;;21.72;75.80
21203;BME280;10759;51.982;9.232;2023-07-16T01:02:16;99711.59;;;21.99;75.45
21203;BME280;10759;51.982;9.232;2023-07-16T01:04:44;99731.75;;;21.79;76.64
21203;BME280;10759;51.982;9.232;2023-07-16T01:07:14;99751.81;;;21.78;78.25
21203;BME280;10759;51.982;9.232;2023-07-16T01:09:44;99772.22;;;21.64;79.52
21203;BME280;10759;51.982;9.232;2023-07-16T01:12:12;99777.69;;;21.54;79.79
21203;BME280;10759;51.982;9.232;2023-07-16T01:14:42;99766.78;;;21.54;80.22
21203;BME280;10759;51.982;9.232;2023-07-16T01:17:11;99691.84;;;20.80;81.96
21203;BME280;10759;51.982;9.232;2023-07-16T01:19:39;99736.59;;;21.07;82.67
21203;BME280;10759;51.982;9.232;2023-07-16T01:22:24;99723.09;;;20.96;82.01
21203;BME280;10759;51.982;9.232;2023-07-16T01:25:10;99758.94;;;21.11;81.30
21203;BME280;10759;51.982;9.232;2023-07-16T01:28:05;99674.44;;;20.62;82.09
21203;BME280;10759;51.982;9.232;2023-07-16T01:30:42;99760.53;;;21.13;82.68
21203;BME280;10759;51.982;9.232;2023-07-16T01:33:12;99744.91;;;21.06;82.08
21203;BME280;10759;51.982;9.232;2023-07-16T01:35:42;99747.22;;;21.10;81.56
21203;BME280;10759;51.982;9.232;2023-07-16T01:38:12;99744.63;;;21.18;81.53
21203;BME280;10759;51.982;9.232;2023-07-16T01:40:42;99740.91;;;21.19;80.79
21203;BME280;10759;51.982;9.232;2023-07-16T01:43:10;99690.66;;;20.73;81.16
21203;BME280;10759;51.982;9.232;2023-07-16T01:45:39;99743.88;;;21.07;81.21
21203;BME280;10759;51.982;9.232;2023-07-16T01:48:27;99729.69;;;20.93;80.30
21203;BME280;10759;51.982;9.232;2023-07-16T01:50:56;99737.88;;;21.03;79.84
21203;BME280;10759;51.982;9.232;2023-07-16T01:53:25;99768.91;;;21.41;78.21
21203;BME280;10759;51.982;9.232;2023-07-16T01:55:53;99736.44;;;21.09;79.97
21203;BME280;10759;51.982;9.232;2023-07-16T01:58:21;99761.16;;;21.27;79.02
21203;BME280;10759;51.982;9.232;2023-07-16T02:00:51;99762.13;;;21.26;79.11
21203;BME280;10759;51.982;9.232;2023-07-16T02:03:19;99780.47;;;21.23;80.75
21203;BME280;10759;51.982;9.232;2023-07-16T02:05:48;99776.34;;;21.19;80.68
21203;BME280;10759;51.982;9.232;2023-07-16T02:08:16;99765.69;;;20.97;81.86
21203;BME280;10759;51.982;9.232;2023-07-16T02:10:44;99716.72;;;20.66;82.10
21203;BME280;10759;51.982;9.232;2023-07-16T02:13:12;99771.69;;;21.00;82.66
21203;BME280;10759;51.982;9.232;2023-07-16T02:15:40;99770.22;;;20.87;83.57
21203;BME280;10759;51.982;9.232;2023-07-16T02:18:09;99765.78;;;20.86;83.81
21203;BME280;10759;51.982;9.232;2023-07-16T02:20:37;99767.19;;;20.70;85.20
21203;BME280;10759;51.982;9.232;2023-07-16T02:23:05;99704.03;;;20.46;85.10
21203;BME280;10759;51.982;9.232;2023-07-16T02:25:33;99777.94;;;20.82;85.50
21203;BME280;10759;51.982;9.232;2023-07-16T02:28:01;99779.81;;;20.81;86.20
21203;BME280;10759;51.982;9.232;2023-07-16T02:30:29;99780.22;;;20.76;86.80
21203;BME280;10759;51.982;9.232;2023-07-16T02:32:57;99704.69;;;20.28;87.66
21203;BME280;10759;51.982;9.232;2023-07-16T02:35:28;99780.09;;;20.78;87.32
21203;BME280;10759;51.982;9.232;2023-07-16T02:37:56;99774.91;;;20.65;88.33
21203;BME280;10759;51.982;9.232;2023-07-16T02:40:25;99783.91;;;20.66;87.99
21203;BME280;10759;51.982;9.232;2023-07-16T02:42:53;99782.94;;;20.76;87.75
21203;BME280;10759;51.982;9.232;2023-07-16T02:45:21;99787.84;;;20.83;87.85
21203;BME280;10759;51.982;9.232;2023-07-16T02:47:49;99790.41;;;20.84;87.01
21203;BME280;10759;51.982;9.232;2023-07-16T02:50:17;99785.56;;;20.88;87.15
21203;BME280;10759;51.982;9.232;2023-07-16T02:52:46;99788.38;;;20.76;86.91
21203;BME280;10759;51.982;9.232;2023-07-16T02:55:14;99789.75;;;20.61;88.19
21203;BME280;10759;51.982;9.232;2023-07-16T02:57:42;99795.63;;;20.56;87.85
21203;BME280;10759;51.982;9.232;2023-07-16T03:00:11;99802.28;;;20.52;87.86
21203;BME280;10759;51.982;9.232;2023-07-16T03:02:39;99797.97;;;20.50;87.24
21203;BME280;10759;51.982;9.232;2023-07-16T03:05:07;99803.69;;;20.47;88.01
21203;BME280;10759;51.982;9.232;2023-07-16T03:07:35;99800.19;;;20.35;88.71
21203;BME280;10759;51.982;9.232;2023-07-16T03:10:06;99803.25;;;20.42;88.72
21203;BME280;10759;51.982;9.232;2023-07-16T03:12:34;99757.53;;;19.84;89.57
21203;BME280;10759;51.982;9.232;2023-07-16T03:15:02;99798.94;;;20.18;89.12
21203;BME280;10759;51.982;9.232;2023-07-16T03:17:32;99817.94;;;20.29;89.41
21203;BME280;10759;51.982;9.232;2023-07-16T03:20:00;99795.91;;;20.11;89.11
21203;BME280;10759;51.982;9.232;2023-07-16T03:22:28;99827.16;;;20.17;89.53
21203;BME280;10759;51.982;9.232;2023-07-16T03:24:56;99824.16;;;20.20;89.34
21203;BME280;10759;51.982;9.232;2023-07-16T03:27:26;99839.81;;;20.07;89.97
21203;BME280;10759;51.982;9.232;2023-07-16T03:29:58;99838.31;;;20.14;89.12
21203;BME280;10759;51.982;9.232;2023-07-16T03:32:26;99841.41;;;20.30;89.05
21203;BME280;10759;51.982;9.232;2023-07-16T03:35:08;99832.19;;;20.22;88.61
21203;BME280;10759;51.982;9.232;2023-07-16T03:37:36;99839.69;;;20.29;88.90
21203;BME280;10759;51.982;9.232;2023-07-16T03:40:13;99845.72;;;20.33;88.67
21203;BME280;10759;51.982;9.232;2023-07-16T03:42:46;99825.88;;;19.79;90.44
21203;BME280;10759;51.982;9.232;2023-07-16T03:45:14;99858.06;;;20.16;89.79
21203;BME280;10759;51.982;9.232;2023-07-16T03:47:43;99850.56;;;20.29;89.01
21203;BME280;10759;51.982;9.232;2023-07-16T03:50:11;99846.19;;;20.17;88.92
21203;BME280;10759;51.982;9.232;2023-07-16T03:52:39;99808.72;;;20.00;88.13
21203;BME280;10759;51.982;9.232;2023-07-16T03:55:08;99858.59;;;20.10;88.89
21203;BME280;10759;51.982;9.232;2023-07-16T03:57:36;99856.56;;;20.23;87.68
21203;BME280;10759;51.982;9.232;2023-07-16T04:00:07;99852.50;;;20.17;87.97
21203;BME280;10759;51.982;9.232;2023-07-16T04:02:46;99813.81;;;19.93;88.54
21203;BME280;10759;51.982;9.232;2023-07-16T04:05:17;99869.88;;;20.26;87.19
21203;BME280;10759;51.982;9.232;2023-07-16T04:07:49;99867.13;;;20.05;87.75
21203;BME280;10759;51.982;9.232;2023-07-16T04:10:17;99879.88;;;20.05;87.21
21203;BME280;10759;51.982;9.232;2023-07-16T04:12:45;99748.22;;;19.33;86.75
21203;BME280;10759;51.982;9.232;2023-07-16T04:15:14;99897.41;;;20.12;86.75
21203;BME280;10759;51.982;9.232;2023-07-16T04:17:43;99892.69;;;20.14;86.65
21203;BME280;10759;51.982;9.232;2023-07-16T04:20:11;99892.44;;;20.38;85.03
21203;BME280;10759;51.982;9.232;2023-07-16T04:22:39;99892.63;;;20.25;85.52
21203;BME280;10759;51.982;9.232;2023-07-16T04:25:08;99833.84;;;20.34;83.49
21203;BME280;10759;51.982;9.232;2023-07-16T04:27:37;99895.53;;;21.37;79.37
21203;BME280;10759;51.982;9.232;2023-07-16T04:30:07;99904.22;;;21.52;79.47
21203;BME280;10759;51.982;9.232;2023-07-16T04:32:36;99907.13;;;22.08;77.18
21203;BME280;10759;51.982;9.232;2023-07-16T04:35:05;99906.28;;;22.18;76.99
21203;BME280;10759;51.982;9.232;2023-07-16T04:37:34;99916.63;;;22.34;74.92
21203;BME280;10759;51.982;9.232;2023-07-16T04:40:02;99917.34;;;22.45;73.88
21203;BME280;10759;51.982;9.232;2023-07-16T04:42:30;99920.50;;;22.31;74.76
21203;BME280;10759;51.982;9.232;2023-07-16T04:44:58;99917.25;;;22.84;71.94
21203;BME280;10759;51.982;9.232;2023-07-16T04:47:26;99918.09;;;22.94;69.94
21203;BME280;10759;51.982;9.232;2023-07-16T04:49:58;99926.31;;;23.32;67.93
21203;BME280;10759;51.982;9.232;2023-07-16T04:52:26;99921.69;;;23.60;67.33
21203;BME280;10759;51.982;9.232;2023-07-16T04:54:55;99921.75;;;23.78;67.43
21203;BME280;10759;51.982;9.232;2023-07-16T04:57:23;99922.19;;;23.18;69.07
21203;BME280;10759;51.982;9.232;2023-07-16T04:59:51;99925.72;;;23.01;69.24
21203;BME280;10759;51.982;9.232;2023-07-16T05:02:19;99934.38;;;23.33;71.01
21203;BME280;10759;51.982;9.232;2023-07-16T05:04:47;99931.94;;;23.86;67.28
21203;BME280;10759;51.982;9.232;2023-07-16T05:07:16;99936.00;;;23.72;68.56
21203;BME280;10759;51.982;9.232;2023-07-16T05:09:44;99930.66;;;22.68;70.88
21203;BME280;10759;51.982;9.232;2023-07-16T05:12:12;99938.47;;;22.24;74.41
21203;BME280;10759;51.982;9.232;2023-07-16T05:14:44;99942.22;;;22.23;74.35
21203;BME280;10759;51.982;9.232;2023-07-16T05:17:13;99948.81;;;22.40;73.83
21203;BME280;10759;51.982;9.232;2023-07-16T05:19:41;99945.03;;;22.70;73.21
21203;BME280;10759;51.982;9.232;2023-07-16T05:22:09;99956.66;;;22.82;71.90
21203;BME280;10759;51.982;9.232;2023-07-16T05:24:38;99967.78;;;23.18;72.13
21203;BME280;10759;51.982;9.232;2023-07-16T05:27:06;99970.34;;;23.29;70.91
21203;BME280;10759;51.982;9.232;2023-07-16T05:29:34;99971.16;;;22.92;72.24
21203;BME280;10759;51.982;9.232;2023-07-16T05:32:02;99909.94;;;22.85;69.70
21203;BME280;10759;51.982;9.232;2023-07-16T05:34:31;99978.81;;;23.26;69.82
21203;BME280;10759;51.982;9.232;2023-07-16T05:37:00;99972.31;;;22.89;72.82
21203;BME280;10759;51.982;9.232;2023-07-16T05:39:28;99978.25;;;22.56;73.73
21203;BME280;10759;51.982;9.232;2023-07-16T05:41:57;99985.72;;;22.34;74.93
21203;BME280;10759;51.982;9.232;2023-07-16T05:44:25;99994.19;;;22.50;72.29
21203;BME280;10759;51.982;9.232;2023-07-16T05:46:53;99991.44;;;22.80;71.44
21203;BME280;10759;51.982;9.232;2023-07-16T05:49:21;99894.25;;;22.30;70.52
21203;BME280;10759;51.982;9.232;2023-07-16T05:51:49;99993.19;;;22.61;71.14
21203;BME280;10759;51.982;9.232;2023-07-16T05:54:17;100008.44;;;22.25;71.40
21203;BME280;10759;51.982;9.232;2023-07-16T05:56:45;100012.22;;;21.93;73.46
21203;BME280;10759;51.982;9.232;2023-07-16T05:59:15;100017.66;;;21.83;71.77
21203;BME280;10759;51.982;9.232;2023-07-16T06:01:43;100005.53;;;21.67;73.60
21203;BME280;10759;51.982;9.232;2023-07-16T06:04:11;100016.31;;;21.78;73.05
21203;BME280;10759;51.982;9.232;2023-07-16T06:06:40;100015.47;;;21.77;72.39
21203;BME280;10759;51.982;9.232;2023-07-16T06:09:08;100019.03;;;21.78;72.76
21203;BME280;10759;51.982;9.232;2023-07-16T06:11:36;100028.78;;;21.71;74.19
21203;BME280;10759;51.982;9.232;2023-07-16T06:14:04;100022.78;;;21.77;72.47
21203;BME280;10759;51.982;9.232;2023-07-16T06:16:34;100023.63;;;21.77;71.86
21203;BME280;10759;51.982;9.232;2023-07-16T06:19:02;100029.44;;;21.94;69.55
21203;BME280;10759;51.982;9.232;2023-07-16T06:21:30;100041.78;;;21.88;68.02
21203;BME280;10759;51.982;9.232;2023-07-16T06:23:58;100040.59;;;21.81;71.20
21203;BME280;10759;51.982;9.232;2023-07-16T06:26:26;99925.97;;;21.42;70.14
21203;BME280;10759;51.982;9.232;2023-07-16T06:28:54;99965.69;;;21.85;66.48
21203;BME280;10759;51.982;9.232;2023-07-16T06:31:22;100049.09;;;22.47;65.89
21203;BME280;10759;51.982;9.232;2023-07-16T06:33:54;100047.22;;;22.58;64.14
21203;BME280;10759;51.982;9.232;2023-07-16T06:36:21;100068.63;;;22.72;63.29
21203;BME280;10759;51.982;9.232;2023-07-16T06:38:50;100042.44;;;22.21;63.33
21203;BME280;10759;51.982;9.232;2023-07-16T06:41:18;100064.59;;;22.27;60.52
21203;BME280;10759;51.982;9.232;2023-07-16T06:43:46;100050.25;;;22.45;58.65
21203;BME280;10759;51.982;9.232;2023-07-16T06:46:14;100072.78;;;22.47;60.93
21203;BME280;10759;51.982;9.232;2023-07-16T06:48:42;100080.13;;;22.66;54.11
21203;BME280;10759;51.982;9.232;2023-07-16T06:51:12;100076.97;;;22.80;55.10
21203;BME280;10759;51.982;9.232;2023-07-16T06:53:39;100066.44;;;23.24;54.61
21203;BME280;10759;51.982;9.232;2023-07-16T06:56:07;100079.66;;;23.39;52.99
21203;BME280;10759;51.982;9.232;2023-07-16T06:58:35;99982.34;;;22.99;51.73
21203;BME280;10759;51.982;9.232;2023-07-16T07:01:03;100071.91;;;23.71;52.32
21203;BME280;10759;51.982;9.232;2023-07-16T07:03:31;100035.97;;;23.19;50.76
21203;BME280;10759;51.982;9.232;2023-07-16T07:06:02;100080.94;;;23.44;49.39
21203;BME280;10759;51.982;9.232;2023-07-16T07:08:31;100075.47;;;23.34;48.27
21203;BME280;10759;51.982;9.232;2023-07-16T07:10:59;100040.16;;;22.94;49.01
21203;BME280;10759;51.982;9.232;2023-07-16T07:13:27;100071.06;;;23.14;50.10
21203;BME280;10759;51.982;9.232;2023-07-16T07:15:56;100058.66;;;23.29;48.84
21203;BME280;10759;51.982;9.232;2023-07-16T07:18:24;100045.72;;;23.31;48.17
21203;BME280;10759;51.982;9.232;2023-07-16T07:20:52;100065.97;;;23.39;49.18
21203;BME280;10759;51.982;9.232;2023-07-16T07:23:20;100066.72;;;23.78;49.29
21203;BME280;10759;51.982;9.232;2023-07-16T07:25:50;99929.38;;;22.62;47.93
21203;BME280;10759;51.982;9.232;2023-07-16T07:28:19;100063.28;;;23.66;48.56
21203;BME280;10759;51.982;9.232;2023-07-16T07:30:47;100067.44;;;23.23;49.36
21203;BME280;10759;51.982;9.232;2023-07-16T07:33:15;100066.75;;;23.68;50.85
21203;BME280;10759;51.982;9.232;2023-07-16T07:35:43;100034.00;;;23.49;48.46
21203;BME280;10759;51.982;9.232;2023-07-16T07:38:11;100070.41;;;23.87;48.69
21203;BME280;10759;51.982;9.232;2023-07-16T07:40:39;100077.31;;;23.91;49.92
21203;BME280;10759;51.982;9.232;2023-07-16T07:43:08;100068.03;;;24.02;48.98
21203;BME280;10759;51.982;9.232;2023-07-16T07:45:36;100064.00;;;24.06;47.58
21203;BME280;10759;51.982;9.232;2023-07-16T07:48:04;100070.41;;;23.87;48.07
21203;BME280;10759;51.982;9.232;2023-07-16T07:50:32;100081.00;;;23.99;47.91
21203;BME280;10759;51.982;9.232;2023-07-16T07:53:00;100078.41;;;24.26;48.66
21203;BME280;10759;51.982;9.232;2023-07-16T07:55:29;100072.66;;;24.01;47.80
21203;BME280;10759;51.982;9.232;2023-07-16T07:57:57;100079.78;;;24.39;47.62
21203;BME280;10759;51.982;9.232;2023-07-16T08:00:26;100062.44;;;24.49;46.61
21203;BME280;10759;51.982;9.232;2023-07-16T08:02:54;100078.66;;;24.60;46.87
21203;BME280;10759;51.982;9.232;2023-07-16T08:05:22;100090.47;;;24.60;46.14
21203;BME280;10759;51.982;9.232;2023-07-16T08:07:50;100086.94;;;24.86;46.51
21203;BME280;10759;51.982;9.232;2023-07-16T08:10:20;100039.28;;;24.79;45.63
21203;BME280;10759;51.982;9.232;2023-07-16T08:12:48;100067.13;;;24.92;45.27
21203;BME280;10759;51.982;9.232;2023-07-16T08:15:17;100070.28;;;24.79;46.27
21203;BME280;10759;51.982;9.232;2023-07-16T08:17:46;100072.00;;;24.62;44.75
21203;BME280;10759;51.982;9.232;2023-07-16T08:20:15;100071.66;;;24.66;44.86
21203;BME280;10759;51.982;9.232;2023-07-16T08:22:43;100044.34;;;24.56;45.54
21203;BME280;10759;51.982;9.232;2023-07-16T08:25:11;100067.16;;;24.56;45.02
21203;BME280;10759;51.982;9.232;2023-07-16T08:27:38;100072.41;;;24.40;44.83
21203;BME280;10759;51.982;9.232;2023-07-16T08:30:07;100076.78;;;24.33;45.21
21203;BME280;10759;51.982;9.232;2023-07-16T08:32:35;100064.03;;;24.24;44.44
21203;BME280;10759;51.982;9.232;2023-07-16T08:35:06;100064.41;;;24.56;44.09
21203;BME280;10759;51.982;9.232;2023-07-16T08:37:34;100064.09;;;24.77;44.04
21203;BME280;10759;51.982;9.232;2023-07-16T08:40:02;99979.16;;;24.24;44.29
21203;BME280;10759;51.982;9.232;2023-07-16T08:42:32;100070.94;;;25.17;43.12
21203;BME280;10759;51.982;9.232;2023-07-16T08:45:02;100049.28;;;25.32;44.52
21203;BME280;10759;51.982;9.232;2023-07-16T08:47:31;100074.34;;;25.37;44.48
21203;BME280;10759;51.982;9.232;2023-07-16T08:49:59;100084.75;;;24.72;43.57
21203;BME280;10759;51.982;9.232;2023-07-16T08:52:29;100042.63;;;24.09;45.36
21203;BME280;10759;51.982;9.232;2023-07-16T08:54:57;100060.56;;;24.21;45.56
21203;BME280;10759;51.982;9.232;2023-07-16T08:57:25;100088.81;;;24.68;46.28
21203;BME280;10759;51.982;9.232;2023-07-16T08:59:55;100101.31;;;24.88;44.72
21203;BME280;10759;51.982;9.232;2023-07-16T09:02:23;100093.72;;;25.18;43.31
21203;BME280;10759;51.982;9.232;2023-07-16T09:04:52;100092.03;;;25.17;45.47
21203;BME280;10759;51.982;9.232;2023-07-16T09:07:21;100106.50;;;24.91;42.57
21203;BME280;10759;51.982;9.232;2023-07-16T09:09:58;100104.94;;;25.24;42.26
21203;BME280;10759;51.982;9.232;2023-07-16T09:12:27;100103.81;;;25.35;42.04
21203;BME280;10759;51.982;9.232;2023-07-16T09:14:56;100096.06;;;25.57;41.28
21203;BME280;10759;51.982;9.232;2023-07-16T09:17:24;100058.97;;;25.18;42.24
21203;BME280;10759;51.982;9.232;2023-07-16T09:19:53;100111.13;;;25.09;41.28
21203;BME280;10759;51.982;9.232;2023-07-16T09:22:22;100096.72;;;25.51;42.44
21203;BME280;10759;51.982;9.232;2023-07-16T09:24:50;100092.88;;;25.69;40.02
21203;BME280;10759;51.982;9.232;2023-07-16T09:27:19;100112.81;;;25.45;39.68
21203;BME280;10759;51.982;9.232;2023-07-16T09:29:47;100106.81;;;25.76;40.28
21203;BME280;10759;51.982;9.232;2023-07-16T09:32:17;100112.41;;;25.66;39.28
21203;BME280;10759;51.982;9.232;2023-07-16T09:34:49;100104.19;;;25.92;39.42
21203;BME280;10759;51.982;9.232;2023-07-16T09:37:18;100121.34;;;25.95;39.35
21203;BME280;10759;51.982;9.232;2023-07-16T09:39:46;100109.25;;;25.53;39.54
21203;BME280;10759;51.982;9.232;2023-07-16T09:42:15;100095.66;;;25.43;40.68
21203;BME280;10759;51.982;9.232;2023-07-16T09:44:48;100130.13;;;25.46;40.66
21203;BME280;10759;51.982;9.232;2023-07-16T09:47:16;100126.72;;;25.52;40.17
21203;BME280;10759;51.982;9.232;2023-07-16T09:49:44;100131.25;;;25.17;40.90
21203;BME280;10759;51.982;9.232;2023-07-16T09:52:13;100125.91;;;25.16;40.06
21203;BME280;10759;51.982;9.232;2023-07-16T09:54:44;100131.09;;;25.63;40.82
21203;BME280;10759;51.982;9.232;2023-07-16T09:57:14;100125.81;;;25.43;39.61
21203;BME280;10759;51.982;9.232;2023-07-16T09:59:43;100124.28;;;25.23;39.38
21203;BME280;10759;51.982;9.232;2023-07-16T10:02:14;100130.94;;;24.84;40.03
21203;BME280;10759;51.982;9.232;2023-07-16T10:04:42;100123.88;;;24.64;40.78
21203;BME280;10759;51.982;9.232;2023-07-16T10:07:19;100132.00;;;24.56;41.06
21203;BME280;10759;51.982;9.232;2023-07-16T10:09:52;100138.25;;;24.48;41.26
21203;BME280;10759;51.982;9.232;2023-07-16T10:12:24;100109.25;;;24.28;40.30
21203;BME280;10759;51.982;9.232;2023-07-16T10:14:54;100108.53;;;24.26;41.43
21203;BME280;10759;51.982;9.232;2023-07-16T10:17:26;100128.97;;;24.77;40.39
21203;BME280;10759;51.982;9.232;2023-07-16T10:19:56;100144.00;;;25.09;40.80
21203;BME280;10759;51.982;9.232;2023-07-16T10:22:34;100134.44;;;25.13;40.68
21203;BME280;10759;51.982;9.232;2023-07-16T10:25:07;100121.75;;;25.47;39.59
21203;BME280;10759;51.982;9.232;2023-07-16T10:27:36;100125.84;;;25.25;39.63
21203;BME280;10759;51.982;9.232;2023-07-16T10:30:05;100125.75;;;25.35;40.09
21203;BME280;10759;51.982;9.232;2023-07-16T10:32:35;100139.16;;;25.90;41.05
21203;BME280;10759;51.982;9.232;2023-07-16T10:35:04;100130.78;;;25.74;38.93
21203;BME280;10759;51.982;9.232;2023-07-16T10:37:32;100066.78;;;25.31;37.76
21203;BME280;10759;51.982;9.232;2023-07-16T10:40:01;100132.50;;;25.93;37.81
21203;BME280;10759;51.982;9.232;2023-07-16T10:42:31;100142.25;;;25.69;37.85
21203;BME280;10759;51.982;9.232;2023-07-16T10:45:01;100135.97;;;25.51;38.08
21203;BME280;10759;51.982;9.232;2023-07-16T10:47:30;100104.50;;;25.37;38.78
21203;BME280;10759;51.982;9.232;2023-07-16T10:50:02;100142.84;;;25.99;39.55
21203;BME280;10759;51.982;9.232;2023-07-16T10:52:31;100141.53;;;26.11;39.27
21203;BME280;10759;51.982;9.232;2023-07-16T10:54:59;100135.91;;;25.87;38.02
21203;BME280;10759;51.982;9.232;2023-07-16T10:57:28;100154.88;;;25.80;37.45
21203;BME280;10759;51.982;9.232;2023-07-16T10:59:57;100131.44;;;25.94;38.79
21203;BME280;10759;51.982;9.232;2023-07-16T11:02:27;100149.53;;;26.05;38.80
21203;BME280;10759;51.982;9.232;2023-07-16T11:04:55;100139.13;;;25.64;39.26
21203;BME280;10759;51.982;9.232;2023-07-16T11:07:26;100145.94;;;25.78;38.64
21203;BME280;10759;51.982;9.232;2023-07-16T11:09:54;100150.53;;;26.04;38.23
21203;BME280;10759;51.982;9.232;2023-07-16T11:12:23;100150.72;;;25.76;38.61
21203;BME280;10759;51.982;9.232;2023-07-16T11:14:53;100156.56;;;25.81;38.99
21203;BME280;10759;51.982;9.232;2023-07-16T11:17:22;100163.25;;;25.53;37.94
21203;BME280;10759;51.982;9.232;2023-07-16T11:19:52;100155.78;;;25.63;38.50
21203;BME280;10759;51.982;9.232;2023-07-16T11:22:26;100151.84;;;25.65;38.93
21203;BME280;10759;51.982;9.232;2023-07-16T11:24:55;100151.22;;;25.98;39.61
21203;BME280;10759;51.982;9.232;2023-07-16T11:27:24;100082.63;;;25.45;37.86
21203;BME280;10759;51.982;9.232;2023-07-16T11:29:54;100153.38;;;25.42;38.50
21203;BME280;10759;51.982;9.232;2023-07-16T11:32:27;100142.75;;;25.39;39.73
21203;BME280;10759;51.982;9.232;2023-07-16T11:34:56;100150.19;;;25.11;38.76
21203;BME280;10759;51.982;9.232;2023-07-16T11:37:27;100162.72;;;25.31;39.22
21203;BME280;10759;51.982;9.232;2023-07-16T11:39:56;100157.44;;;25.56;38.14
21203;BME280;10759;51.982;9.232;2023-07-16T11:42:28;100155.78;;;26.23;40.15
21203;BME280;10759;51.982;9.232;2023-07-16T11:44:56;100158.59;;;26.40;40.09
21203;BME280;10759;51.982;9.232;2023-07-16T11:47:24;100125.59;;;26.66;38.18
21203;BME280;10759;51.982;9.232;2023-07-16T11:49:53;100131.09;;;26.66;36.33
21203;BME280;10759;51.982;9.232;2023-07-16T11:52:22;100155.38;;;26.44;37.60
21203;BME280;10759;51.982;9.232;2023-07-16T11:54:52;100157.69;;;26.65;38.88
21203;BME280;10759;51.982;9.232;2023-07-16T11:57:20;100162.81;;;26.60;37.56
21203;BME280;10759;51.982;9.232;2023-07-16T11:59:48;100156.56;;;26.50;38.84
21203;BME280;10759;51.982;9.232;2023-07-16T12:02:16;100127.00;;;26.35;37.60
21203;BME280;10759;51.982;9.232;2023-07-16T12:04:44;100163.88;;;26.67;39.46
21203;BME280;10759;51.982;9.232;2023-07-16T12:07:12;100156.03;;;26.89;37.18
21203;BME280;10759;51.982;9.232;2023-07-16T12:09:40;100141.97;;;27.00;38.84
21203;BME280;10759;51.982;9.232;2023-07-16T12:12:10;100158.06;;;26.79;36.63
21203;BME280;10759;51.982;9.232;2023-07-16T12:14:38;100162.38;;;26.89;38.06
21203;BME280;10759;51.982;9.232;2023-07-16T12:17:06;100162.22;;;26.99;36.86
21203;BME280;10759;51.982;9.232;2023-07-16T12:19:34;100150.34;;;26.74;38.69
21203;BME280;10759;51.982;9.232;2023-07-16T12:22:02;100126.59;;;26.65;36.45
21203;BME280;10759;51.982;9.232;2023-07-16T12:24:30;100159.97;;;26.86;37.48
21203;BME280;10759;51.982;9.232;2023-07-16T12:26:57;100162.16;;;26.66;39.80
21203;BME280;10759;51.982;9.232;2023-07-16T12:29:27;100164.88;;;26.58;37.65
21203;BME280;10759;51.982;9.232;2023-07-16T12:31:55;100161.81;;;26.69;37.02
21203;BME280;10759;51.982;9.232;2023-07-16T12:34:22;100158.31;;;27.26;38.52
21203;BME280;10759;51.982;9.232;2023-07-16T12:36:51;100117.03;;;26.85;36.11
21203;BME280;10759;51.982;9.232;2023-07-16T12:39:20;100160.19;;;27.17;35.58
21203;BME280;10759;51.982;9.232;2023-07-16T12:41:49;100155.81;;;26.74;35.89
21203;BME280;10759;51.982;9.232;2023-07-16T12:44:17;100163.25;;;26.98;35.74
21203;BME280;10759;51.982;9.232;2023-07-16T12:46:46;100158.63;;;26.90;35.99
21203;BME280;10759;51.982;9.232;2023-07-16T12:49:15;100067.84;;;25.99;38.34
21203;BME280;10759;51.982;9.232;2023-07-16T12:51:43;100163.56;;;26.79;39.22
21203;BME280;10759;51.982;9.232;2023-07-16T12:54:10;100172.56;;;27.05;36.67
21203;BME280;10759;51.982;9.232;2023-07-16T12:56:38;100168.31;;;27.27;36.79
21203;BME280;10759;51.982;9.232;2023-07-16T12:59:06;100174.63;;;27.19;36.40
21203;BME280;10759;51.982;9.232;2023-07-16T13:01:34;100180.25;;;27.10;36.19
21203;BME280;10759;51.982;9.232;2023-07-16T13:04:04;100169.06;;;26.87;35.73